createdAt,value
2019-05-29T00:00:48.096Z,25.80
2019-05-29T00:03:20.422Z,25.80
2019-05-29T00:05:53.156Z,25.80
2019-05-29T00:08:25.471Z,25.80
2019-05-29T00:10:58.162Z,25.80
2019-05-29T00:13:30.512Z,25.80
2019-05-29T00:16:03.314Z,25.90
2019-05-29T00:18:35.530Z,26.00
2019-05-29T00:21:08.392Z,26.00
2019-05-29T00:23:40.963Z,26.00
2019-05-29T00:26:14.563Z,26.00
2019-05-29T00:28:46.847Z,26.00
2019-05-29T00:31:19.656Z,26.10
2019-05-29T00:33:51.813Z,26.10
2019-05-29T00:36:24.348Z,26.20
2019-05-29T00:38:56.446Z,26.20
2019-05-29T00:41:29.106Z,26.20
2019-05-29T00:44:01.491Z,26.40
2019-05-29T00:46:33.747Z,26.40
2019-05-29T00:49:07.659Z,26.40
2019-05-29T00:51:40.340Z,26.40
2019-05-29T00:54:12.690Z,26.40
2019-05-29T00:56:44.894Z,26.50
2019-05-29T00:59:17.408Z,26.50
2019-05-29T01:01:49.907Z,26.60
2019-05-29T01:04:22.420Z,26.70
2019-05-29T01:06:54.622Z,26.70
2019-05-29T01:09:27.376Z,26.80
2019-05-29T01:11:59.627Z,27.00
2019-05-29T01:14:31.991Z,27.10
2019-05-29T01:17:04.312Z,27.00
2019-05-29T01:19:36.974Z,27.00
2019-05-29T01:22:09.689Z,27.00
2019-05-29T01:24:42.078Z,27.10
2019-05-29T01:27:15.074Z,27.30
2019-05-29T01:29:47.528Z,27.30
2019-05-29T01:32:21.620Z,27.30
2019-05-29T01:34:54.256Z,27.40
2019-05-29T01:37:26.825Z,27.50
2019-05-29T01:39:59.202Z,27.50
2019-05-29T01:42:31.626Z,27.50
2019-05-29T01:45:08.219Z,27.70
2019-05-29T01:47:37.938Z,27.70
2019-05-29T01:50:10.438Z,27.80
2019-05-29T01:52:43.326Z,27.80
2019-05-29T01:55:15.856Z,27.90
2019-05-29T01:57:48.508Z,27.90
2019-05-29T02:00:21.962Z,28.10
2019-05-29T02:02:54.759Z,28.20
2019-05-29T02:05:28.171Z,28.10
2019-05-29T02:08:00.582Z,28.20
2019-05-29T02:10:32.872Z,28.30
2019-05-29T02:13:06.681Z,28.40
2019-05-29T02:15:38.982Z,28.60
2019-05-29T02:18:11.389Z,28.70
2019-05-29T02:20:44.064Z,28.70
2019-05-29T02:23:16.317Z,28.90
2019-05-29T02:25:48.521Z,28.70
2019-05-29T02:28:22.526Z,28.80
2019-05-29T02:30:55.379Z,28.80
2019-05-29T02:33:28.847Z,28.90
2019-05-29T02:36:01.055Z,29.10
2019-05-29T02:38:33.475Z,29.30
2019-05-29T02:41:06.239Z,29.60
2019-05-29T02:43:38.648Z,29.30
2019-05-29T02:46:10.854Z,29.50
2019-05-29T02:48:43.462Z,29.70
2019-05-29T02:51:15.595Z,29.50
2019-05-29T02:53:48.467Z,29.40
2019-05-29T02:56:20.931Z,29.50
2019-05-29T02:58:54.555Z,29.40
2019-05-29T03:01:27.796Z,30.00
2019-05-29T03:04:00.581Z,30.30
2019-05-29T03:06:32.887Z,29.90
2019-05-29T03:09:07.688Z,29.70
2019-05-29T03:11:39.900Z,29.90
2019-05-29T03:14:12.313Z,30.50
2019-05-29T03:16:45.725Z,30.60
2019-05-29T03:19:18.423Z,30.40
2019-05-29T03:21:51.514Z,30.90
2019-05-29T03:24:24.484Z,30.40
2019-05-29T03:26:56.778Z,30.40
2019-05-29T03:29:30.016Z,30.90
2019-05-29T03:32:02.419Z,30.50
2019-05-29T03:34:42.059Z,30.50
2019-05-29T03:37:08.385Z,30.50
2019-05-29T03:39:41.425Z,30.80
2019-05-29T03:42:13.626Z,30.60
2019-05-29T03:44:45.916Z,30.60
2019-05-29T03:47:18.329Z,30.60
2019-05-29T03:49:50.757Z,31.00
2019-05-29T03:52:23.226Z,31.30
2019-05-29T03:54:55.467Z,31.70
2019-05-29T03:57:29.694Z,31.80
2019-05-29T04:00:01.805Z,31.30
2019-05-29T04:02:36.145Z,31.80
2019-05-29T04:05:10.805Z,32.20
2019-05-29T04:07:43.312Z,31.60
2019-05-29T04:10:15.956Z,31.80
2019-05-29T04:12:48.504Z,32.20
2019-05-29T04:15:20.876Z,32.40
2019-05-29T04:17:54.091Z,32.40
2019-05-29T04:20:27.536Z,32.50
2019-05-29T04:23:01.412Z,32.30
2019-05-29T04:25:39.606Z,31.90
2019-05-29T04:28:10.978Z,32.40
2019-05-29T04:30:43.500Z,32.30
2019-05-29T04:33:15.965Z,32.00
2019-05-29T04:35:48.093Z,32.50
2019-05-29T04:38:20.713Z,32.50
2019-05-29T04:40:53.051Z,32.70
2019-05-29T04:43:25.721Z,32.70
2019-05-29T04:45:58.045Z,33.00
2019-05-29T04:48:31.476Z,33.40
2019-05-29T04:51:04.087Z,33.50
2019-05-29T04:53:37.742Z,33.50
2019-05-29T04:56:10.607Z,33.50
2019-05-29T04:58:42.793Z,32.90
2019-05-29T05:01:15.085Z,32.70
2019-05-29T05:03:47.374Z,33.20
2019-05-29T05:06:20.188Z,33.30
2019-05-29T05:08:52.378Z,33.30
2019-05-29T05:11:25.047Z,33.20
2019-05-29T05:13:57.200Z,33.20
2019-05-29T05:16:29.830Z,32.80
2019-05-29T05:19:02.802Z,32.80
2019-05-29T05:21:36.006Z,33.80
2019-05-29T05:24:08.343Z,34.10
2019-05-29T05:26:40.929Z,34.40
2019-05-29T05:29:13.200Z,34.10
2019-05-29T05:31:46.303Z,33.40
2019-05-29T05:34:18.525Z,33.60
2019-05-29T05:36:51.024Z,33.30
2019-05-29T05:39:23.422Z,33.00
2019-05-29T05:41:56.449Z,33.70
2019-05-29T05:44:28.895Z,34.10
2019-05-29T05:47:01.194Z,34.60
2019-05-29T05:49:33.471Z,34.50
2019-05-29T05:52:06.367Z,34.40
2019-05-29T05:54:39.501Z,34.60
2019-05-29T05:57:11.978Z,34.30
2019-05-29T05:59:44.150Z,34.10
2019-05-29T06:02:16.798Z,34.00
2019-05-29T06:04:48.899Z,33.90
2019-05-29T06:07:21.453Z,34.20
2019-05-29T06:09:53.564Z,34.50
2019-05-29T06:12:25.973Z,34.90
2019-05-29T06:14:58.150Z,35.20
2019-05-29T06:17:30.536Z,35.00
2019-05-29T06:20:02.759Z,33.70
2019-05-29T06:22:35.284Z,33.90
2019-05-29T06:25:08.921Z,34.00
2019-05-29T06:27:41.549Z,34.70
2019-05-29T06:30:14.559Z,35.00
2019-05-29T06:32:47.589Z,35.10
2019-05-29T06:35:20.697Z,34.60
2019-05-29T06:37:53.453Z,33.90
2019-05-29T06:40:29.010Z,33.60
2019-05-29T06:43:01.453Z,33.60
2019-05-29T06:45:36.451Z,33.60
2019-05-29T06:48:11.068Z,33.40
2019-05-29T06:50:43.468Z,33.70
2019-05-29T06:53:15.941Z,34.20
2019-05-29T06:55:52.972Z,34.40
2019-05-29T06:58:21.863Z,34.40
2019-05-29T07:00:54.263Z,34.30
2019-05-29T07:03:27.002Z,34.40
2019-05-29T07:05:59.231Z,34.10
2019-05-29T07:08:39.083Z,34.70
2019-05-29T07:11:05.387Z,34.60
2019-05-29T07:13:40.994Z,34.40
2019-05-29T07:16:11.910Z,34.50
2019-05-29T07:19:20.531Z,33.90
2019-05-29T07:21:17.808Z,33.40
2019-05-29T07:23:50.505Z,34.10
2019-05-29T07:26:23.183Z,33.70
2019-05-29T07:29:06.880Z,33.70
2019-05-29T07:31:29.397Z,33.80
2019-05-29T07:34:02.080Z,33.80
2019-05-29T07:36:34.384Z,33.70
2019-05-29T07:39:09.247Z,33.70
2019-05-29T07:41:41.683Z,33.70
2019-05-29T07:44:14.327Z,33.70
2019-05-29T07:46:47.123Z,33.60
2019-05-29T07:49:29.629Z,33.60
2019-05-29T07:51:54.123Z,34.10
2019-05-29T07:54:26.709Z,33.90
2019-05-29T07:56:59.258Z,33.90
2019-05-29T07:59:33.159Z,33.90
2019-05-29T08:02:05.708Z,34.20
2019-05-29T08:04:38.880Z,34.10
2019-05-29T08:07:11.295Z,34.20
2019-05-29T08:09:43.969Z,34.20
2019-05-29T08:12:16.290Z,34.00
2019-05-29T08:14:49.851Z,33.60
2019-05-29T08:17:24.729Z,34.30
2019-05-29T08:20:06.190Z,34.60
2019-05-29T08:22:34.312Z,35.00
2019-05-29T08:25:03.777Z,35.10
2019-05-29T08:27:36.574Z,35.30
2019-05-29T08:30:10.219Z,35.00
2019-05-29T08:32:43.576Z,34.30
2019-05-29T08:35:16.731Z,34.10
2019-05-29T08:37:49.167Z,33.90
2019-05-29T08:40:22.010Z,33.70
2019-05-29T08:42:55.049Z,33.80
2019-05-29T08:45:27.653Z,33.70
2019-05-29T08:47:59.816Z,33.70
2019-05-29T08:50:32.101Z,33.70
2019-05-29T08:53:04.261Z,34.10
2019-05-29T08:55:36.782Z,34.40
2019-05-29T08:58:08.947Z,34.30
2019-05-29T09:00:46.470Z,34.00
2019-05-29T09:03:15.265Z,33.90
2019-05-29T09:06:04.309Z,34.00
2019-05-29T09:08:21.561Z,34.00
2019-05-29T09:10:54.222Z,33.90
2019-05-29T09:13:26.811Z,33.70
2019-05-29T09:15:59.166Z,33.60
2019-05-29T09:18:31.596Z,33.70
2019-05-29T09:21:07.823Z,33.60
2019-05-29T09:23:40.037Z,33.80
2019-05-29T09:26:19.051Z,34.00
2019-05-29T09:28:46.859Z,34.10
2019-05-29T09:31:22.143Z,34.40
2019-05-29T09:33:58.875Z,34.50
2019-05-29T09:36:32.619Z,34.60
2019-05-29T09:39:08.254Z,34.80
2019-05-29T09:41:43.504Z,34.60
2019-05-29T09:44:37.295Z,34.70
2019-05-29T09:46:56.001Z,34.60
2019-05-29T09:49:31.525Z,34.60
2019-05-29T09:52:05.819Z,34.60
2019-05-29T09:54:39.979Z,34.60
2019-05-29T09:57:16.766Z,34.50
2019-05-29T09:59:49.853Z,34.50
2019-05-29T10:02:22.579Z,34.60
2019-05-29T10:04:56.090Z,34.60
2019-05-29T10:07:28.530Z,34.60
2019-05-29T10:10:02.923Z,34.50
2019-05-29T10:12:34.302Z,34.40
2019-05-29T10:15:09.098Z,34.30
2019-05-29T10:17:41.493Z,34.10
2019-05-29T10:20:14.850Z,34.00
2019-05-29T10:22:47.407Z,33.90
2019-05-29T10:25:21.367Z,33.80
2019-05-29T10:27:53.596Z,33.70
2019-05-29T10:30:26.262Z,33.60
2019-05-29T10:32:59.314Z,33.60
2019-05-29T10:35:31.553Z,33.40
2019-05-29T10:38:04.651Z,33.40
2019-05-29T10:40:37.369Z,33.40
2019-05-29T10:43:09.671Z,33.40
2019-05-29T10:45:43.400Z,33.30
2019-05-29T10:48:15.678Z,33.30
2019-05-29T10:50:50.980Z,33.10
2019-05-29T10:53:22.013Z,33.10
2019-05-29T10:55:54.893Z,33.00
2019-05-29T10:58:27.526Z,32.90
2019-05-29T11:00:59.966Z,32.90
2019-05-29T11:03:32.586Z,32.80
2019-05-29T11:06:04.897Z,32.70
2019-05-29T11:08:37.440Z,32.50
2019-05-29T11:11:09.741Z,32.30
2019-05-29T11:13:41.985Z,32.10
2019-05-29T11:16:14.489Z,31.90
2019-05-29T11:18:47.515Z,31.70
2019-05-29T11:21:19.873Z,31.60
2019-05-29T11:23:52.063Z,31.40
2019-05-29T11:26:24.446Z,31.30
2019-05-29T11:28:56.777Z,31.30
2019-05-29T11:31:29.243Z,31.10
2019-05-29T11:34:01.395Z,31.10
2019-05-29T11:36:33.739Z,31.00
2019-05-29T19:34:07.599Z,26.00
2019-05-29T19:36:40.218Z,26.00
2019-05-29T19:39:13.095Z,25.90
2019-05-29T19:41:45.409Z,26.00
2019-05-29T19:44:17.740Z,25.90
2019-05-29T19:46:54.068Z,26.00
2019-05-29T19:49:25.413Z,26.00
2019-05-29T19:51:57.694Z,26.00
2019-05-29T19:54:29.886Z,26.00
2019-05-29T19:57:02.662Z,26.00
2019-05-29T19:59:36.167Z,26.10
2019-05-29T20:02:09.729Z,26.10
2019-05-29T20:04:42.110Z,26.10
2019-05-29T20:07:14.561Z,26.10
2019-05-29T20:09:46.983Z,26.00
2019-05-29T20:12:19.535Z,26.10
2019-05-29T20:14:51.963Z,26.00
2019-05-29T20:17:24.374Z,26.00
2019-05-29T20:19:56.903Z,26.00
2019-05-29T20:22:30.247Z,26.00
2019-05-29T20:25:02.723Z,26.00
2019-05-29T20:27:36.207Z,26.00
2019-05-29T20:30:11.062Z,25.90
2019-05-29T20:32:43.630Z,26.00
2019-05-29T20:35:17.061Z,25.90
2019-05-29T20:37:50.753Z,26.00
2019-05-29T20:40:23.383Z,26.00
2019-05-29T20:42:55.935Z,26.00
2019-05-29T20:45:28.398Z,26.00
2019-05-29T20:48:01.242Z,26.00
2019-05-29T20:50:34.699Z,26.00
2019-05-29T20:53:07.420Z,26.00
2019-05-29T20:55:39.912Z,26.00
2019-05-29T20:58:24.105Z,26.00
2019-05-29T21:00:46.003Z,26.00
2019-05-29T21:03:18.415Z,26.00
2019-05-29T21:05:51.071Z,26.00
2019-05-29T21:08:23.898Z,26.00
2019-05-29T21:10:56.500Z,26.10
2019-05-29T21:13:28.698Z,26.10
2019-05-29T21:16:01.001Z,26.10
2019-05-29T21:18:33.810Z,26.00
2019-05-29T21:21:06.419Z,26.10
2019-05-29T21:23:38.581Z,26.00
2019-05-29T21:26:14.325Z,26.00
2019-05-29T21:28:51.595Z,26.00
2019-05-29T21:31:25.329Z,26.00
2019-05-29T21:33:57.742Z,26.00
2019-05-29T21:36:30.081Z,26.00
2019-05-29T21:39:02.725Z,26.00
2019-05-29T21:41:36.286Z,26.00
2019-05-29T21:44:08.766Z,26.00
2019-05-29T21:46:41.327Z,26.00
2019-05-29T21:49:13.683Z,26.00
2019-05-29T21:51:45.975Z,26.00
2019-05-29T21:54:18.599Z,26.00
2019-05-29T21:56:50.758Z,26.00
2019-05-29T21:59:23.091Z,26.00
2019-05-29T22:01:55.399Z,26.00
2019-05-29T22:04:28.056Z,26.00
2019-05-29T22:07:00.150Z,26.10
2019-05-29T22:09:32.568Z,26.10
2019-05-29T22:12:05.155Z,26.10
2019-05-29T22:14:37.706Z,26.10
2019-05-29T22:17:10.247Z,26.10
2019-05-29T22:19:42.853Z,26.20
2019-05-29T22:22:15.567Z,26.10
2019-05-29T22:24:47.935Z,26.10
2019-05-29T22:27:20.367Z,26.10
2019-05-29T22:29:53.582Z,26.10
2019-05-29T22:32:26.089Z,26.00
2019-05-29T22:34:59.492Z,26.10
2019-05-29T22:37:32.110Z,26.00
2019-05-29T22:40:05.438Z,26.00
2019-05-29T22:42:37.819Z,26.00
2019-05-29T22:45:11.546Z,26.00
2019-05-29T22:47:43.743Z,26.00
2019-05-29T22:50:16.965Z,26.00
2019-05-29T22:52:49.057Z,26.00
2019-05-29T22:55:21.682Z,26.10
2019-05-29T22:57:53.968Z,26.00
2019-05-29T23:00:26.959Z,26.10
2019-05-29T23:03:00.188Z,26.10
2019-05-29T23:05:33.024Z,26.10
2019-05-29T23:08:05.457Z,26.20
2019-05-29T23:10:37.694Z,26.20
2019-05-29T23:13:10.016Z,26.20
2019-05-29T23:15:43.741Z,26.20
2019-05-29T23:18:16.731Z,26.30
2019-05-29T23:20:49.076Z,26.30
2019-05-29T23:23:21.475Z,26.30
2019-05-29T23:25:54.858Z,26.30
2019-05-29T23:28:27.146Z,26.40
2019-05-29T23:31:00.913Z,26.40
2019-05-29T23:33:33.415Z,26.40
2019-05-29T23:36:05.922Z,26.40
2019-05-29T23:38:38.132Z,26.40
2019-05-29T23:41:10.384Z,26.50
2019-05-29T23:43:42.694Z,26.50
2019-05-29T23:46:15.211Z,26.60
2019-05-29T23:48:47.357Z,26.60
2019-05-29T23:51:19.832Z,26.60
2019-05-29T23:53:53.519Z,26.70
2019-05-29T23:56:25.885Z,26.70
2019-05-29T23:58:59.817Z,26.70
